sensor_id;sensor_type;location;lat;lon;timestamp;P1;durP1;ratioP1;P2;durP2;ratioP2
54641;SDS011;40536;53.194;5.728;2023-08-07T00:00:31;143.80;;;136.93;;
54641;SDS011;40536;53.194;5.728;2023-08-07T00:02:56;106.53;;;101.18;;
54641;SDS011;40536;53.194;5.728;2023-08-07T00:05:22;72.30;;;68.28;;
54641;SDS011;40536;53.194;5.728;2023-08-07T00:07:48;52.35;;;49.13;;
54641;SDS011;40536;53.194;5.728;2023-08-07T00:10:14;35.08;;;32.40;;
54641;SDS011;40536;53.194;5.728;2023-08-07T00:12:39;27.05;;;24.88;;
54641;SDS011;40536;53.194;5.728;2023-08-07T00:15:05;30.17;;;27.67;;
54641;SDS011;40536;53.194;5.728;2023-08-07T00:17:31;24.88;;;22.88;;
54641;SDS011;40536;53.194;5.728;2023-08-07T00:19:57;27.10;;;25.00;;
54641;SDS011;40536;53.194;5.728;2023-08-07T00:22:23;29.65;;;27.60;;
54641;SDS011;40536;53.194;5.728;2023-08-07T00:24:50;30.42;;;28.23;;
54641;SDS011;40536;53.194;5.728;2023-08-07T00:27:15;38.97;;;36.50;;
54641;SDS011;40536;53.194;5.728;2023-08-07T00:29:41;41.83;;;38.83;;
54641;SDS011;40536;53.194;5.728;2023-08-07T00:32:07;43.72;;;40.88;;
54641;SDS011;40536;53.194;5.728;2023-08-07T00:34:32;41.72;;;38.83;;
54641;SDS011;40536;53.194;5.728;2023-08-07T00:36:58;51.20;;;48.30;;
54641;SDS011;40536;53.194;5.728;2023-08-07T00:39:24;49.63;;;46.40;;
54641;SDS011;40536;53.194;5.728;2023-08-07T00:41:49;51.85;;;48.80;;
54641;SDS011;40536;53.194;5.728;2023-08-07T00:44:15;59.47;;;56.00;;
54641;SDS011;40536;53.194;5.728;2023-08-07T00:46:41;69.82;;;65.82;;
54641;SDS011;40536;53.194;5.728;2023-08-07T00:49:07;69.50;;;65.65;;
54641;SDS011;40536;53.194;5.728;2023-08-07T00:51:36;109.32;;;103.78;;
54641;SDS011;40536;53.194;5.728;2023-08-07T00:54:03;150.55;;;143.70;;
54641;SDS011;40536;53.194;5.728;2023-08-07T00:56:32;149.55;;;142.27;;
54641;SDS011;40536;53.194;5.728;2023-08-07T00:58:58;125.65;;;119.78;;
54641;SDS011;40536;53.194;5.728;2023-08-07T01:01:25;120.25;;;114.20;;
54641;SDS011;40536;53.194;5.728;2023-08-07T01:03:51;103.03;;;97.60;;
54641;SDS011;40536;53.194;5.728;2023-08-07T01:06:17;98.90;;;94.05;;
54641;SDS011;40536;53.194;5.728;2023-08-07T01:08:43;103.63;;;98.22;;
54641;SDS011;40536;53.194;5.728;2023-08-07T01:13:45;62.45;;;58.85;;
54641;SDS011;40536;53.194;5.728;2023-08-07T01:16:26;63.15;;;59.60;;
54641;SDS011;40536;53.194;5.728;2023-08-07T01:18:56;51.70;;;48.55;;
54641;SDS011;40536;53.194;5.728;2023-08-07T01:21:23;44.90;;;41.80;;
54641;SDS011;40536;53.194;5.728;2023-08-07T01:23:49;36.53;;;34.13;;
54641;SDS011;40536;53.194;5.728;2023-08-07T01:26:15;28.83;;;26.35;;
54641;SDS011;40536;53.194;5.728;2023-08-07T01:28:43;25.45;;;23.55;;
54641;SDS011;40536;53.194;5.728;2023-08-07T01:31:15;20.05;;;18.33;;
54641;SDS011;40536;53.194;5.728;2023-08-07T01:33:57;17.50;;;16.10;;
54641;SDS011;40536;53.194;5.728;2023-08-07T01:36:27;16.17;;;14.75;;
54641;SDS011;40536;53.194;5.728;2023-08-07T01:38:55;19.15;;;16.73;;
54641;SDS011;40536;53.194;5.728;2023-08-07T01:41:23;15.45;;;14.07;;
54641;SDS011;40536;53.194;5.728;2023-08-07T01:43:49;16.23;;;14.73;;
54641;SDS011;40536;53.194;5.728;2023-08-07T01:46:16;17.13;;;15.43;;
54641;SDS011;40536;53.194;5.728;2023-08-07T01:48:41;15.18;;;13.88;;
54641;SDS011;40536;53.194;5.728;2023-08-07T01:51:07;15.73;;;14.10;;
54641;SDS011;40536;53.194;5.728;2023-08-07T01:53:32;19.45;;;14.75;;
54641;SDS011;40536;53.194;5.728;2023-08-07T01:55:58;16.42;;;14.73;;
54641;SDS011;40536;53.194;5.728;2023-08-07T01:58:24;18.23;;;16.42;;
54641;SDS011;40536;53.194;5.728;2023-08-07T02:00:49;20.98;;;19.17;;
54641;SDS011;40536;53.194;5.728;2023-08-07T02:03:15;23.35;;;21.42;;
54641;SDS011;40536;53.194;5.728;2023-08-07T02:05:40;24.80;;;22.95;;
54641;SDS011;40536;53.194;5.728;2023-08-07T02:08:06;30.77;;;27.77;;
54641;SDS011;40536;53.194;5.728;2023-08-07T02:10:32;47.65;;;43.80;;
54641;SDS011;40536;53.194;5.728;2023-08-07T02:12:57;112.18;;;106.45;;
54641;SDS011;40536;53.194;5.728;2023-08-07T02:15:24;245.50;;;233.98;;
54641;SDS011;40536;53.194;5.728;2023-08-07T02:17:50;288.75;;;274.60;;
54641;SDS011;40536;53.194;5.728;2023-08-07T02:20:18;331.35;;;314.98;;
54641;SDS011;40536;53.194;5.728;2023-08-07T02:22:43;332.50;;;316.58;;
54641;SDS011;40536;53.194;5.728;2023-08-07T02:25:09;414.15;;;393.48;;
54641;SDS011;40536;53.194;5.728;2023-08-07T02:27:34;405.73;;;385.48;;
54641;SDS011;40536;53.194;5.728;2023-08-07T02:30:00;343.08;;;326.90;;
54641;SDS011;40536;53.194;5.728;2023-08-07T02:32:28;308.23;;;294.30;;
54641;SDS011;40536;53.194;5.728;2023-08-07T02:34:54;360.13;;;342.73;;
54641;SDS011;40536;53.194;5.728;2023-08-07T02:37:19;386.52;;;367.17;;
54641;SDS011;40536;53.194;5.728;2023-08-07T02:39:45;482.52;;;455.50;;
54641;SDS011;40536;53.194;5.728;2023-08-07T02:42:11;507.35;;;474.70;;
54641;SDS011;40536;53.194;5.728;2023-08-07T02:44:37;498.27;;;470.95;;
54641;SDS011;40536;53.194;5.728;2023-08-07T02:47:03;446.08;;;420.65;;
54641;SDS011;40536;53.194;5.728;2023-08-07T02:49:28;447.25;;;421.88;;
54641;SDS011;40536;53.194;5.728;2023-08-07T02:51:54;399.95;;;377.17;;
54641;SDS011;40536;53.194;5.728;2023-08-07T02:54:20;387.92;;;365.55;;
54641;SDS011;40536;53.194;5.728;2023-08-07T02:56:45;207.20;;;197.55;;
54641;SDS011;40536;53.194;5.728;2023-08-07T02:59:11;130.20;;;123.13;;
54641;SDS011;40536;53.194;5.728;2023-08-07T03:01:37;86.05;;;80.60;;
54641;SDS011;40536;53.194;5.728;2023-08-07T03:04:02;37.22;;;34.30;;
54641;SDS011;40536;53.194;5.728;2023-08-07T03:06:28;40.15;;;37.13;;
54641;SDS011;40536;53.194;5.728;2023-08-07T03:08:54;29.27;;;26.95;;
54641;SDS011;40536;53.194;5.728;2023-08-07T03:11:20;31.67;;;29.27;;
54641;SDS011;40536;53.194;5.728;2023-08-07T03:13:46;33.17;;;30.25;;
54641;SDS011;40536;53.194;5.728;2023-08-07T03:16:11;28.83;;;26.65;;
54641;SDS011;40536;53.194;5.728;2023-08-07T03:18:39;36.25;;;33.67;;
54641;SDS011;40536;53.194;5.728;2023-08-07T03:21:04;23.60;;;21.63;;
54641;SDS011;40536;53.194;5.728;2023-08-07T03:23:30;24.58;;;22.23;;
54641;SDS011;40536;53.194;5.728;2023-08-07T03:26:02;20.27;;;18.45;;
54641;SDS011;40536;53.194;5.728;2023-08-07T03:28:33;24.25;;;22.25;;
54641;SDS011;40536;53.194;5.728;2023-08-07T03:30:59;18.23;;;14.82;;
54641;SDS011;40536;53.194;5.728;2023-08-07T03:33:25;18.23;;;16.48;;
54641;SDS011;40536;53.194;5.728;2023-08-07T03:35:50;19.88;;;18.08;;
54641;SDS011;40536;53.194;5.728;2023-08-07T03:38:16;15.95;;;12.98;;
54641;SDS011;40536;53.194;5.728;2023-08-07T03:40:42;19.83;;;18.17;;
54641;SDS011;40536;53.194;5.728;2023-08-07T03:43:08;15.35;;;13.80;;
54641;SDS011;40536;53.194;5.728;2023-08-07T03:45:34;40.45;;;37.38;;
54641;SDS011;40536;53.194;5.728;2023-08-07T03:48:00;167.95;;;157.60;;
54641;SDS011;40536;53.194;5.728;2023-08-07T03:50:26;73.13;;;68.70;;
54641;SDS011;40536;53.194;5.728;2023-08-07T03:52:51;48.20;;;45.08;;
54641;SDS011;40536;53.194;5.728;2023-08-07T03:55:17;51.80;;;47.00;;
54641;SDS011;40536;53.194;5.728;2023-08-07T03:57:43;88.90;;;81.78;;
54641;SDS011;40536;53.194;5.728;2023-08-07T04:00:09;48.28;;;45.45;;
54641;SDS011;40536;53.194;5.728;2023-08-07T04:02:35;60.67;;;56.30;;
54641;SDS011;40536;53.194;5.728;2023-08-07T04:05:01;76.90;;;72.03;;
54641;SDS011;40536;53.194;5.728;2023-08-07T04:07:27;108.10;;;101.32;;
54641;SDS011;40536;53.194;5.728;2023-08-07T04:09:53;54.50;;;51.38;;
54641;SDS011;40536;53.194;5.728;2023-08-07T04:12:18;47.88;;;44.30;;
54641;SDS011;40536;53.194;5.728;2023-08-07T04:14:44;62.53;;;58.47;;
54641;SDS011;40536;53.194;5.728;2023-08-07T04:17:09;81.55;;;76.68;;
54641;SDS011;40536;53.194;5.728;2023-08-07T04:19:36;55.80;;;51.97;;
54641;SDS011;40536;53.194;5.728;2023-08-07T04:22:03;32.95;;;30.15;;
54641;SDS011;40536;53.194;5.728;2023-08-07T04:24:29;37.63;;;34.63;;
54641;SDS011;40536;53.194;5.728;2023-08-07T04:26:54;62.15;;;58.17;;
54641;SDS011;40536;53.194;5.728;2023-08-07T04:29:20;20.92;;;18.13;;
54641;SDS011;40536;53.194;5.728;2023-08-07T04:31:46;19.23;;;17.20;;
54641;SDS011;40536;53.194;5.728;2023-08-07T04:34:11;25.52;;;19.73;;
54641;SDS011;40536;53.194;5.728;2023-08-07T04:36:37;18.73;;;16.75;;
54641;SDS011;40536;53.194;5.728;2023-08-07T04:39:03;21.50;;;16.52;;
54641;SDS011;40536;53.194;5.728;2023-08-07T04:41:29;21.58;;;12.30;;
54641;SDS011;40536;53.194;5.728;2023-08-07T04:43:54;22.67;;;17.67;;
54641;SDS011;40536;53.194;5.728;2023-08-07T04:46:20;21.83;;;13.70;;
54641;SDS011;40536;53.194;5.728;2023-08-07T04:48:45;22.08;;;15.13;;
54641;SDS011;40536;53.194;5.728;2023-08-07T04:51:12;24.05;;;16.67;;
54641;SDS011;40536;53.194;5.728;2023-08-07T04:53:38;32.65;;;29.23;;
54641;SDS011;40536;53.194;5.728;2023-08-07T04:56:04;29.50;;;18.15;;
54641;SDS011;40536;53.194;5.728;2023-08-07T04:58:29;21.45;;;11.88;;
54641;SDS011;40536;53.194;5.728;2023-08-07T05:00:55;20.42;;;9.38;;
54641;SDS011;40536;53.194;5.728;2023-08-07T05:03:22;16.02;;;6.22;;
54641;SDS011;40536;53.194;5.728;2023-08-07T05:05:47;17.08;;;7.72;;
54641;SDS011;40536;53.194;5.728;2023-08-07T05:08:13;18.98;;;7.93;;
54641;SDS011;40536;53.194;5.728;2023-08-07T05:10:39;14.05;;;9.18;;
54641;SDS011;40536;53.194;5.728;2023-08-07T05:13:04;16.02;;;6.47;;
54641;SDS011;40536;53.194;5.728;2023-08-07T05:15:30;18.10;;;6.72;;
54641;SDS011;40536;53.194;5.728;2023-08-07T05:17:56;10.60;;;5.28;;
54641;SDS011;40536;53.194;5.728;2023-08-07T05:20:22;8.48;;;4.90;;
54641;SDS011;40536;53.194;5.728;2023-08-07T05:22:48;15.05;;;6.80;;
54641;SDS011;40536;53.194;5.728;2023-08-07T05:25:14;8.82;;;5.40;;
54641;SDS011;40536;53.194;5.728;2023-08-07T05:27:44;20.88;;;10.57;;
54641;SDS011;40536;53.194;5.728;2023-08-07T05:30:11;16.45;;;7.68;;
54641;SDS011;40536;53.194;5.728;2023-08-07T05:32:37;14.63;;;7.00;;
54641;SDS011;40536;53.194;5.728;2023-08-07T05:35:04;15.55;;;6.70;;
54641;SDS011;40536;53.194;5.728;2023-08-07T05:37:30;14.38;;;6.50;;
54641;SDS011;40536;53.194;5.728;2023-08-07T05:39:56;19.02;;;8.38;;
54641;SDS011;40536;53.194;5.728;2023-08-07T05:42:22;18.65;;;6.10;;
54641;SDS011;40536;53.194;5.728;2023-08-07T05:44:48;17.25;;;8.05;;
54641;SDS011;40536;53.194;5.728;2023-08-07T05:47:14;11.30;;;5.97;;
54641;SDS011;40536;53.194;5.728;2023-08-07T05:49:40;11.98;;;7.30;;
54641;SDS011;40536;53.194;5.728;2023-08-07T05:52:05;11.95;;;5.50;;
54641;SDS011;40536;53.194;5.728;2023-08-07T05:54:32;11.63;;;5.40;;
54641;SDS011;40536;53.194;5.728;2023-08-07T05:56:57;14.75;;;11.18;;
54641;SDS011;40536;53.194;5.728;2023-08-07T05:59:23;11.70;;;5.20;;
54641;SDS011;40536;53.194;5.728;2023-08-07T06:01:49;11.45;;;9.25;;
54641;SDS011;40536;53.194;5.728;2023-08-07T06:04:16;10.70;;;4.47;;
54641;SDS011;40536;53.194;5.728;2023-08-07T06:06:42;12.75;;;5.68;;
54641;SDS011;40536;53.194;5.728;2023-08-07T06:09:08;15.80;;;4.72;;
54641;SDS011;40536;53.194;5.728;2023-08-07T06:11:33;10.07;;;5.35;;
54641;SDS011;40536;53.194;5.728;2023-08-07T06:13:59;14.65;;;5.07;;
54641;SDS011;40536;53.194;5.728;2023-08-07T06:16:26;19.77;;;6.07;;
54641;SDS011;40536;53.194;5.728;2023-08-07T06:18:52;12.27;;;5.32;;
54641;SDS011;40536;53.194;5.728;2023-08-07T06:21:18;11.10;;;5.40;;
54641;SDS011;40536;53.194;5.728;2023-08-07T06:23:45;12.10;;;5.07;;
54641;SDS011;40536;53.194;5.728;2023-08-07T06:26:11;12.20;;;5.20;;
54641;SDS011;40536;53.194;5.728;2023-08-07T06:28:37;11.23;;;4.97;;
54641;SDS011;40536;53.194;5.728;2023-08-07T06:31:04;8.88;;;4.40;;
54641;SDS011;40536;53.194;5.728;2023-08-07T06:33:35;8.85;;;5.18;;
54641;SDS011;40536;53.194;5.728;2023-08-07T06:36:01;8.45;;;4.80;;
54641;SDS011;40536;53.194;5.728;2023-08-07T06:38:27;9.02;;;3.90;;
54641;SDS011;40536;53.194;5.728;2023-08-07T06:40:53;10.63;;;7.55;;
54641;SDS011;40536;53.194;5.728;2023-08-07T06:43:18;10.57;;;4.20;;
54641;SDS011;40536;53.194;5.728;2023-08-07T06:45:50;9.38;;;5.05;;
54641;SDS011;40536;53.194;5.728;2023-08-07T06:48:17;18.42;;;11.57;;
54641;SDS011;40536;53.194;5.728;2023-08-07T06:50:43;10.82;;;6.28;;
54641;SDS011;40536;53.194;5.728;2023-08-07T06:53:09;17.60;;;8.30;;
54641;SDS011;40536;53.194;5.728;2023-08-07T06:55:35;19.80;;;8.13;;
54641;SDS011;40536;53.194;5.728;2023-08-07T06:58:00;13.43;;;7.05;;
54641;SDS011;40536;53.194;5.728;2023-08-07T07:00:26;8.68;;;5.30;;
54641;SDS011;40536;53.194;5.728;2023-08-07T07:02:52;7.97;;;5.10;;
54641;SDS011;40536;53.194;5.728;2023-08-07T07:05:18;13.50;;;5.88;;
54641;SDS011;40536;53.194;5.728;2023-08-07T07:07:43;8.93;;;5.75;;
54641;SDS011;40536;53.194;5.728;2023-08-07T07:10:09;13.52;;;6.25;;
54641;SDS011;40536;53.194;5.728;2023-08-07T07:12:35;9.65;;;4.40;;
54641;SDS011;40536;53.194;5.728;2023-08-07T07:15:01;9.98;;;4.70;;
54641;SDS011;40536;53.194;5.728;2023-08-07T07:17:27;9.82;;;4.57;;
54641;SDS011;40536;53.194;5.728;2023-08-07T07:19:53;13.68;;;5.28;;
54641;SDS011;40536;53.194;5.728;2023-08-07T07:22:18;14.05;;;6.15;;
54641;SDS011;40536;53.194;5.728;2023-08-07T07:24:44;10.15;;;5.50;;
54641;SDS011;40536;53.194;5.728;2023-08-07T07:27:10;12.15;;;7.32;;
54641;SDS011;40536;53.194;5.728;2023-08-07T07:29:35;10.60;;;5.50;;
54641;SDS011;40536;53.194;5.728;2023-08-07T07:32:01;9.38;;;5.13;;
54641;SDS011;40536;53.194;5.728;2023-08-07T07:34:27;8.70;;;5.50;;
54641;SDS011;40536;53.194;5.728;2023-08-07T07:36:53;11.98;;;5.82;;
54641;SDS011;40536;53.194;5.728;2023-08-07T07:39:19;10.57;;;6.63;;
54641;SDS011;40536;53.194;5.728;2023-08-07T07:41:45;14.35;;;7.13;;
54641;SDS011;40536;53.194;5.728;2023-08-07T07:44:11;15.95;;;7.72;;
54641;SDS011;40536;53.194;5.728;2023-08-07T07:46:36;16.05;;;7.80;;
54641;SDS011;40536;53.194;5.728;2023-08-07T07:49:02;21.23;;;7.80;;
54641;SDS011;40536;53.194;5.728;2023-08-07T07:51:30;16.98;;;8.30;;
54641;SDS011;40536;53.194;5.728;2023-08-07T07:53:56;11.57;;;7.70;;
54641;SDS011;40536;53.194;5.728;2023-08-07T07:56:22;18.38;;;6.85;;
54641;SDS011;40536;53.194;5.728;2023-08-07T07:58:48;12.15;;;4.88;;
54641;SDS011;40536;53.194;5.728;2023-08-07T08:01:14;14.10;;;4.90;;
54641;SDS011;40536;53.194;5.728;2023-08-07T08:03:39;11.63;;;4.22;;
54641;SDS011;40536;53.194;5.728;2023-08-07T08:06:05;9.25;;;3.85;;
54641;SDS011;40536;53.194;5.728;2023-08-07T08:08:31;9.32;;;4.18;;
54641;SDS011;40536;53.194;5.728;2023-08-07T08:10:56;11.70;;;4.60;;
54641;SDS011;40536;53.194;5.728;2023-08-07T08:13:22;11.35;;;5.70;;
54641;SDS011;40536;53.194;5.728;2023-08-07T08:15:50;10.40;;;4.55;;
54641;SDS011;40536;53.194;5.728;2023-08-07T08:18:16;12.60;;;4.55;;
54641;SDS011;40536;53.194;5.728;2023-08-07T08:20:43;10.23;;;4.70;;
54641;SDS011;40536;53.194;5.728;2023-08-07T08:23:08;13.57;;;4.57;;
54641;SDS011;40536;53.194;5.728;2023-08-07T08:25:34;10.82;;;4.47;;
54641;SDS011;40536;53.194;5.728;2023-08-07T08:28:00;8.50;;;4.05;;
54641;SDS011;40536;53.194;5.728;2023-08-07T08:30:25;13.60;;;4.00;;
54641;SDS011;40536;53.194;5.728;2023-08-07T08:32:51;9.20;;;3.72;;
54641;SDS011;40536;53.194;5.728;2023-08-07T08:35:17;10.93;;;4.03;;
54641;SDS011;40536;53.194;5.728;2023-08-07T08:37:43;8.75;;;3.97;;
54641;SDS011;40536;53.194;5.728;2023-08-07T08:40:09;13.25;;;3.90;;
54641;SDS011;40536;53.194;5.728;2023-08-07T08:42:41;9.20;;;3.60;;
54641;SDS011;40536;53.194;5.728;2023-08-07T08:45:09;11.07;;;3.90;;
54641;SDS011;40536;53.194;5.728;2023-08-07T08:47:37;11.30;;;3.72;;
54641;SDS011;40536;53.194;5.728;2023-08-07T08:50:05;10.48;;;3.70;;
54641;SDS011;40536;53.194;5.728;2023-08-07T08:52:34;7.97;;;3.78;;
54641;SDS011;40536;53.194;5.728;2023-08-07T08:55:02;14.23;;;4.40;;
54641;SDS011;40536;53.194;5.728;2023-08-07T08:57:28;9.55;;;3.95;;
54641;SDS011;40536;53.194;5.728;2023-08-07T08:59:55;9.60;;;4.05;;
54641;SDS011;40536;53.194;5.728;2023-08-07T09:02:22;10.20;;;4.20;;
54641;SDS011;40536;53.194;5.728;2023-08-07T09:04:47;7.53;;;3.65;;
54641;SDS011;40536;53.194;5.728;2023-08-07T09:07:14;9.65;;;3.97;;
54641;SDS011;40536;53.194;5.728;2023-08-07T09:09:43;13.00;;;4.97;;
54641;SDS011;40536;53.194;5.728;2023-08-07T09:12:15;9.95;;;4.28;;
54641;SDS011;40536;53.194;5.728;2023-08-07T09:14:45;9.38;;;3.85;;
54641;SDS011;40536;53.194;5.728;2023-08-07T09:19:44;7.25;;;3.60;;
54641;SDS011;40536;53.194;5.728;2023-08-07T09:22:10;12.60;;;4.10;;
54641;SDS011;40536;53.194;5.728;2023-08-07T09:24:36;10.27;;;3.50;;
54641;SDS011;40536;53.194;5.728;2023-08-07T09:27:02;9.73;;;4.00;;
54641;SDS011;40536;53.194;5.728;2023-08-07T09:29:27;8.10;;;3.88;;
54641;SDS011;40536;53.194;5.728;2023-08-07T09:31:56;8.88;;;4.00;;
54641;SDS011;40536;53.194;5.728;2023-08-07T09:34:23;10.25;;;3.63;;
54641;SDS011;40536;53.194;5.728;2023-08-07T09:36:48;9.70;;;3.83;;
54641;SDS011;40536;53.194;5.728;2023-08-07T09:39:14;8.82;;;3.83;;
54641;SDS011;40536;53.194;5.728;2023-08-07T09:41:40;10.32;;;4.50;;
54641;SDS011;40536;53.194;5.728;2023-08-07T09:44:06;11.38;;;4.47;;
54641;SDS011;40536;53.194;5.728;2023-08-07T09:46:40;11.38;;;5.50;;
54641;SDS011;40536;53.194;5.728;2023-08-07T09:49:06;8.93;;;3.88;;
54641;SDS011;40536;53.194;5.728;2023-08-07T09:51:45;9.52;;;4.05;;
54641;SDS011;40536;53.194;5.728;2023-08-07T09:54:12;10.65;;;4.05;;
54641;SDS011;40536;53.194;5.728;2023-08-07T09:56:39;8.75;;;3.92;;
54641;SDS011;40536;53.194;5.728;2023-08-07T09:59:05;10.10;;;3.45;;
54641;SDS011;40536;53.194;5.728;2023-08-07T10:01:32;8.20;;;3.58;;
54641;SDS011;40536;53.194;5.728;2023-08-07T10:03:57;9.20;;;3.85;;
54641;SDS011;40536;53.194;5.728;2023-08-07T10:06:23;10.23;;;3.17;;
54641;SDS011;40536;53.194;5.728;2023-08-07T10:08:50;6.93;;;4.57;;
54641;SDS011;40536;53.194;5.728;2023-08-07T10:11:17;8.18;;;3.53;;
54641;SDS011;40536;53.194;5.728;2023-08-07T10:13:43;11.00;;;4.05;;
54641;SDS011;40536;53.194;5.728;2023-08-07T10:16:09;7.78;;;3.50;;
54641;SDS011;40536;53.194;5.728;2023-08-07T10:18:35;6.25;;;3.17;;
54641;SDS011;40536;53.194;5.728;2023-08-07T10:21:03;7.30;;;3.30;;
54641;SDS011;40536;53.194;5.728;2023-08-07T10:23:32;7.70;;;3.25;;
54641;SDS011;40536;53.194;5.728;2023-08-07T10:26:01;8.88;;;3.25;;
54641;SDS011;40536;53.194;5.728;2023-08-07T10:28:29;8.15;;;3.70;;
54641;SDS011;40536;53.194;5.728;2023-08-07T10:30:57;12.48;;;4.07;;
54641;SDS011;40536;53.194;5.728;2023-08-07T10:33:23;7.85;;;3.00;;
54641;SDS011;40536;53.194;5.728;2023-08-07T10:35:51;7.88;;;3.30;;
54641;SDS011;40536;53.194;5.728;2023-08-07T10:38:22;8.73;;;3.60;;
54641;SDS011;40536;53.194;5.728;2023-08-07T10:43:23;11.18;;;3.60;;
54641;SDS011;40536;53.194;5.728;2023-08-07T10:45:50;9.35;;;3.67;;
54641;SDS011;40536;53.194;5.728;2023-08-07T10:48:19;6.03;;;3.42;;
54641;SDS011;40536;53.194;5.728;2023-08-07T10:56:02;8.73;;;3.80;;
54641;SDS011;40536;53.194;5.728;2023-08-07T10:58:32;7.22;;;3.67;;
54641;SDS011;40536;53.194;5.728;2023-08-07T11:01:15;15.63;;;4.45;;
54641;SDS011;40536;53.194;5.728;2023-08-07T11:04:00;6.78;;;3.83;;
54641;SDS011;40536;53.194;5.728;2023-08-07T11:06:32;10.05;;;4.30;;
54641;SDS011;40536;53.194;5.728;2023-08-07T11:08:59;8.73;;;3.58;;
54641;SDS011;40536;53.194;5.728;2023-08-07T11:11:29;10.32;;;3.70;;
54641;SDS011;40536;53.194;5.728;2023-08-07T11:14:04;7.97;;;3.95;;
54641;SDS011;40536;53.194;5.728;2023-08-07T11:16:34;9.05;;;4.15;;
54641;SDS011;40536;53.194;5.728;2023-08-07T11:19:00;8.07;;;3.40;;
54641;SDS011;40536;53.194;5.728;2023-08-07T11:21:26;9.57;;;4.15;;
54641;SDS011;40536;53.194;5.728;2023-08-07T11:23:51;10.27;;;4.53;;
54641;SDS011;40536;53.194;5.728;2023-08-07T11:26:17;12.43;;;7.38;;
54641;SDS011;40536;53.194;5.728;2023-08-07T11:28:46;14.18;;;8.70;;
54641;SDS011;40536;53.194;5.728;2023-08-07T11:31:12;12.77;;;11.48;;
54641;SDS011;40536;53.194;5.728;2023-08-07T11:33:38;11.88;;;10.98;;
54641;SDS011;40536;53.194;5.728;2023-08-07T11:36:12;13.38;;;12.18;;
54641;SDS011;40536;53.194;5.728;2023-08-07T11:38:42;16.17;;;14.88;;
54641;SDS011;40536;53.194;5.728;2023-08-07T11:41:09;15.25;;;13.98;;
54641;SDS011;40536;53.194;5.728;2023-08-07T11:43:36;21.55;;;19.85;;
54641;SDS011;40536;53.194;5.728;2023-08-07T11:46:05;22.55;;;21.00;;
54641;SDS011;40536;53.194;5.728;2023-08-07T11:48:32;16.13;;;14.63;;
54641;SDS011;40536;53.194;5.728;2023-08-07T11:51:00;13.85;;;10.40;;
54641;SDS011;40536;53.194;5.728;2023-08-07T11:53:26;15.10;;;11.05;;
54641;SDS011;40536;53.194;5.728;2023-08-07T11:58:23;8.20;;;7.40;;
54641;SDS011;40536;53.194;5.728;2023-08-07T12:00:50;10.85;;;7.97;;
54641;SDS011;40536;53.194;5.728;2023-08-07T12:06:19;10.25;;;6.05;;
54641;SDS011;40536;53.194;5.728;2023-08-07T12:08:47;7.07;;;5.45;;
54641;SDS011;40536;53.194;5.728;2023-08-07T12:11:17;6.63;;;4.10;;
54641;SDS011;40536;53.194;5.728;2023-08-07T12:13:44;6.32;;;4.32;;
54641;SDS011;40536;53.194;5.728;2023-08-07T12:16:10;8.35;;;4.63;;
54641;SDS011;40536;53.194;5.728;2023-08-07T12:18:47;9.27;;;5.00;;
54641;SDS011;40536;53.194;5.728;2023-08-07T12:21:20;11.40;;;4.85;;
54641;SDS011;40536;53.194;5.728;2023-08-07T12:23:50;7.25;;;4.28;;
54641;SDS011;40536;53.194;5.728;2023-08-07T12:26:17;6.20;;;4.22;;
54641;SDS011;40536;53.194;5.728;2023-08-07T12:28:43;10.57;;;5.13;;
54641;SDS011;40536;53.194;5.728;2023-08-07T12:31:09;10.43;;;5.03;;
54641;SDS011;40536;53.194;5.728;2023-08-07T12:33:34;11.30;;;5.47;;
54641;SDS011;40536;53.194;5.728;2023-08-07T12:36:01;9.65;;;4.50;;
54641;SDS011;40536;53.194;5.728;2023-08-07T12:38:27;8.02;;;4.10;;
54641;SDS011;40536;53.194;5.728;2023-08-07T12:40:53;6.22;;;4.43;;
54641;SDS011;40536;53.194;5.728;2023-08-07T12:43:19;10.68;;;4.97;;
54641;SDS011;40536;53.194;5.728;2023-08-07T12:45:45;9.93;;;5.43;;
54641;SDS011;40536;53.194;5.728;2023-08-07T12:48:11;15.73;;;6.78;;
54641;SDS011;40536;53.194;5.728;2023-08-07T12:50:38;13.35;;;7.55;;
54641;SDS011;40536;53.194;5.728;2023-08-07T12:53:04;11.68;;;6.28;;
54641;SDS011;40536;53.194;5.728;2023-08-07T12:55:30;12.68;;;5.82;;
54641;SDS011;40536;53.194;5.728;2023-08-07T12:57:56;10.70;;;6.07;;
54641;SDS011;40536;53.194;5.728;2023-08-07T13:00:22;10.80;;;7.03;;
54641;SDS011;40536;53.194;5.728;2023-08-07T13:02:48;10.60;;;5.10;;
54641;SDS011;40536;53.194;5.728;2023-08-07T13:05:16;10.85;;;5.18;;
54641;SDS011;40536;53.194;5.728;2023-08-07T13:07:43;9.77;;;5.55;;
54641;SDS011;40536;53.194;5.728;2023-08-07T13:10:11;10.95;;;5.38;;
54641;SDS011;40536;53.194;5.728;2023-08-07T13:12:39;9.55;;;5.30;;
54641;SDS011;40536;53.194;5.728;2023-08-07T13:15:06;7.80;;;4.90;;
54641;SDS011;40536;53.194;5.728;2023-08-07T13:17:36;10.70;;;4.38;;
54641;SDS011;40536;53.194;5.728;2023-08-07T13:20:02;11.23;;;5.00;;
54641;SDS011;40536;53.194;5.728;2023-08-07T13:22:35;9.55;;;4.85;;
54641;SDS011;40536;53.194;5.728;2023-08-07T13:25:06;10.85;;;3.80;;
54641;SDS011;40536;53.194;5.728;2023-08-07T13:27:32;14.07;;;4.22;;
54641;SDS011;40536;53.194;5.728;2023-08-07T13:29:59;9.82;;;4.63;;
54641;SDS011;40536;53.194;5.728;2023-08-07T13:32:25;9.45;;;4.78;;
54641;SDS011;40536;53.194;5.728;2023-08-07T13:34:51;11.88;;;4.63;;
54641;SDS011;40536;53.194;5.728;2023-08-07T13:37:17;9.27;;;4.03;;
54641;SDS011;40536;53.194;5.728;2023-08-07T13:39:42;8.55;;;4.00;;
54641;SDS011;40536;53.194;5.728;2023-08-07T13:42:08;8.23;;;4.57;;
54641;SDS011;40536;53.194;5.728;2023-08-07T13:44:35;12.98;;;5.25;;
54641;SDS011;40536;53.194;5.728;2023-08-07T13:47:04;9.98;;;4.45;;
54641;SDS011;40536;53.194;5.728;2023-08-07T13:49:30;8.63;;;3.95;;
54641;SDS011;40536;53.194;5.728;2023-08-07T13:51:55;10.50;;;4.57;;
54641;SDS011;40536;53.194;5.728;2023-08-07T13:54:21;10.18;;;4.13;;
54641;SDS011;40536;53.194;5.728;2023-08-07T13:56:47;8.88;;;3.45;;
54641;SDS011;40536;53.194;5.728;2023-08-07T13:59:13;8.63;;;3.50;;
54641;SDS011;40536;53.194;5.728;2023-08-07T14:01:38;9.88;;;3.53;;
54641;SDS011;40536;53.194;5.728;2023-08-07T14:04:04;10.80;;;3.50;;
54641;SDS011;40536;53.194;5.728;2023-08-07T14:06:30;9.15;;;4.05;;
54641;SDS011;40536;53.194;5.728;2023-08-07T14:08:56;7.07;;;3.95;;
54641;SDS011;40536;53.194;5.728;2023-08-07T14:11:22;9.75;;;3.92;;
54641;SDS011;40536;53.194;5.728;2023-08-07T14:13:52;11.93;;;3.70;;
54641;SDS011;40536;53.194;5.728;2023-08-07T14:16:18;8.20;;;3.50;;
54641;SDS011;40536;53.194;5.728;2023-08-07T14:18:44;10.45;;;4.07;;
54641;SDS011;40536;53.194;5.728;2023-08-07T14:21:10;8.18;;;3.42;;
54641;SDS011;40536;53.194;5.728;2023-08-07T14:23:36;8.40;;;3.30;;
54641;SDS011;40536;53.194;5.728;2023-08-07T14:26:01;8.20;;;3.60;;
54641;SDS011;40536;53.194;5.728;2023-08-07T14:28:27;6.72;;;3.28;;
54641;SDS011;40536;53.194;5.728;2023-08-07T14:30:53;5.80;;;2.85;;
54641;SDS011;40536;53.194;5.728;2023-08-07T14:33:22;8.13;;;3.15;;
54641;SDS011;40536;53.194;5.728;2023-08-07T14:35:47;7.38;;;3.30;;
54641;SDS011;40536;53.194;5.728;2023-08-07T14:38:13;7.75;;;3.28;;
54641;SDS011;40536;53.194;5.728;2023-08-07T14:40:39;6.30;;;3.40;;
54641;SDS011;40536;53.194;5.728;2023-08-07T14:43:06;9.32;;;3.20;;
54641;SDS011;40536;53.194;5.728;2023-08-07T14:45:32;7.60;;;3.47;;